sensor_id;sensor_type;location;lat;lon;timestamp;P1;durP1;ratioP1;P2;durP2;ratioP2
60700;SDS011;46541;49.894;10.886;2024-01-30T00:00:02;38.30;;;18.88;;
60700;SDS011;46541;49.894;10.886;2024-01-30T00:02:30;37.97;;;18.02;;
60700;SDS011;46541;49.894;10.886;2024-01-30T00:04:58;34.50;;;17.00;;
60700;SDS011;46541;49.894;10.886;2024-01-30T00:07:25;37.08;;;17.20;;
60700;SDS011;46541;49.894;10.886;2024-01-30T00:09:52;34.95;;;16.73;;
60700;SDS011;46541;49.894;10.886;2024-01-30T00:12:18;36.92;;;17.23;;
60700;SDS011;46541;49.894;10.886;2024-01-30T00:14:45;33.00;;;16.55;;
60700;SDS011;46541;49.894;10.886;2024-01-30T00:17:12;40.45;;;17.27;;
60700;SDS011;46541;49.894;10.886;2024-01-30T00:19:39;38.60;;;16.08;;
60700;SDS011;46541;49.894;10.886;2024-01-30T00:22:06;34.90;;;17.85;;
60700;SDS011;46541;49.894;10.886;2024-01-30T00:24:33;34.55;;;16.20;;
60700;SDS011;46541;49.894;10.886;2024-01-30T00:27:00;40.30;;;17.60;;
60700;SDS011;46541;49.894;10.886;2024-01-30T00:29:27;37.25;;;15.60;;
60700;SDS011;46541;49.894;10.886;2024-01-30T00:31:57;31.73;;;14.82;;
60700;SDS011;46541;49.894;10.886;2024-01-30T00:34:23;28.63;;;14.88;;
60700;SDS011;46541;49.894;10.886;2024-01-30T00:36:50;29.75;;;15.13;;
60700;SDS011;46541;49.894;10.886;2024-01-30T00:39:17;29.60;;;14.10;;
60700;SDS011;46541;49.894;10.886;2024-01-30T00:41:45;28.42;;;13.20;;
60700;SDS011;46541;49.894;10.886;2024-01-30T00:44:12;33.85;;;14.07;;
60700;SDS011;46541;49.894;10.886;2024-01-30T00:46:39;31.33;;;15.60;;
60700;SDS011;46541;49.894;10.886;2024-01-30T00:49:06;24.98;;;12.90;;
60700;SDS011;46541;49.894;10.886;2024-01-30T00:51:33;24.05;;;13.13;;
60700;SDS011;46541;49.894;10.886;2024-01-30T00:53:59;26.02;;;12.75;;
60700;SDS011;46541;49.894;10.886;2024-01-30T00:56:26;29.58;;;14.00;;
60700;SDS011;46541;49.894;10.886;2024-01-30T00:58:53;28.02;;;13.02;;
60700;SDS011;46541;49.894;10.886;2024-01-30T01:01:20;29.05;;;13.07;;
60700;SDS011;46541;49.894;10.886;2024-01-30T01:03:47;22.60;;;12.40;;
60700;SDS011;46541;49.894;10.886;2024-01-30T01:06:15;28.05;;;12.68;;
60700;SDS011;46541;49.894;10.886;2024-01-30T01:08:42;32.22;;;14.45;;
60700;SDS011;46541;49.894;10.886;2024-01-30T01:11:08;33.38;;;15.15;;
60700;SDS011;46541;49.894;10.886;2024-01-30T01:13:35;42.33;;;16.52;;
60700;SDS011;46541;49.894;10.886;2024-01-30T01:16:02;29.90;;;15.10;;
60700;SDS011;46541;49.894;10.886;2024-01-30T01:18:30;39.60;;;16.90;;
60700;SDS011;46541;49.894;10.886;2024-01-30T01:20:57;35.20;;;16.48;;
60700;SDS011;46541;49.894;10.886;2024-01-30T01:23:24;36.05;;;16.63;;
60700;SDS011;46541;49.894;10.886;2024-01-30T01:25:50;34.72;;;16.52;;
60700;SDS011;46541;49.894;10.886;2024-01-30T01:28:17;44.67;;;16.13;;
60700;SDS011;46541;49.894;10.886;2024-01-30T01:30:45;40.08;;;15.45;;
60700;SDS011;46541;49.894;10.886;2024-01-30T01:33:12;35.33;;;15.43;;
60700;SDS011;46541;49.894;10.886;2024-01-30T01:35:41;30.83;;;13.27;;
60700;SDS011;46541;49.894;10.886;2024-01-30T01:38:07;31.80;;;14.82;;
60700;SDS011;46541;49.894;10.886;2024-01-30T01:40:34;35.10;;;15.25;;
60700;SDS011;46541;49.894;10.886;2024-01-30T01:43:02;29.83;;;13.95;;
60700;SDS011;46541;49.894;10.886;2024-01-30T01:45:31;28.23;;;14.32;;
60700;SDS011;46541;49.894;10.886;2024-01-30T01:47:58;24.77;;;12.65;;
60700;SDS011;46541;49.894;10.886;2024-01-30T01:50:25;24.83;;;12.57;;
60700;SDS011;46541;49.894;10.886;2024-01-30T01:52:52;28.63;;;13.60;;
60700;SDS011;46541;49.894;10.886;2024-01-30T01:55:20;28.55;;;12.93;;
60700;SDS011;46541;49.894;10.886;2024-01-30T01:57:53;25.98;;;12.45;;
60700;SDS011;46541;49.894;10.886;2024-01-30T02:00:20;28.85;;;14.23;;
60700;SDS011;46541;49.894;10.886;2024-01-30T02:02:47;28.15;;;12.93;;
60700;SDS011;46541;49.894;10.886;2024-01-30T02:05:16;27.77;;;13.05;;
60700;SDS011;46541;49.894;10.886;2024-01-30T02:07:43;25.98;;;11.45;;
60700;SDS011;46541;49.894;10.886;2024-01-30T02:10:11;23.52;;;11.75;;
60700;SDS011;46541;49.894;10.886;2024-01-30T02:12:38;29.38;;;12.68;;
60700;SDS011;46541;49.894;10.886;2024-01-30T02:15:05;24.77;;;12.23;;
60700;SDS011;46541;49.894;10.886;2024-01-30T02:17:33;24.52;;;11.68;;
60700;SDS011;46541;49.894;10.886;2024-01-30T02:20:00;25.38;;;12.43;;
60700;SDS011;46541;49.894;10.886;2024-01-30T02:22:28;28.10;;;12.82;;
60700;SDS011;46541;49.894;10.886;2024-01-30T02:24:55;27.40;;;11.85;;
60700;SDS011;46541;49.894;10.886;2024-01-30T02:27:22;23.88;;;11.57;;
60700;SDS011;46541;49.894;10.886;2024-01-30T02:29:48;23.25;;;10.95;;
60700;SDS011;46541;49.894;10.886;2024-01-30T02:32:18;21.05;;;11.52;;
60700;SDS011;46541;49.894;10.886;2024-01-30T02:34:45;27.67;;;13.95;;
60700;SDS011;46541;49.894;10.886;2024-01-30T02:37:11;32.10;;;12.95;;
60700;SDS011;46541;49.894;10.886;2024-01-30T02:39:38;22.27;;;12.02;;
60700;SDS011;46541;49.894;10.886;2024-01-30T02:42:05;23.23;;;11.13;;
60700;SDS011;46541;49.894;10.886;2024-01-30T02:44:32;27.63;;;11.35;;
60700;SDS011;46541;49.894;10.886;2024-01-30T02:46:58;26.13;;;11.38;;
60700;SDS011;46541;49.894;10.886;2024-01-30T02:49:25;24.15;;;11.15;;
60700;SDS011;46541;49.894;10.886;2024-01-30T02:51:53;22.00;;;10.40;;
60700;SDS011;46541;49.894;10.886;2024-01-30T02:54:20;24.42;;;11.10;;
60700;SDS011;46541;49.894;10.886;2024-01-30T02:56:47;22.08;;;10.77;;
60700;SDS011;46541;49.894;10.886;2024-01-30T02:59:14;26.80;;;10.43;;
60700;SDS011;46541;49.894;10.886;2024-01-30T03:01:44;19.70;;;9.82;;
60700;SDS011;46541;49.894;10.886;2024-01-30T03:04:11;18.48;;;10.30;;
60700;SDS011;46541;49.894;10.886;2024-01-30T03:06:39;25.25;;;10.55;;
60700;SDS011;46541;49.894;10.886;2024-01-30T03:09:12;19.90;;;10.70;;
60700;SDS011;46541;49.894;10.886;2024-01-30T03:11:39;22.27;;;11.20;;
60700;SDS011;46541;49.894;10.886;2024-01-30T03:14:06;18.05;;;9.90;;
60700;SDS011;46541;49.894;10.886;2024-01-30T03:16:34;22.70;;;10.80;;
60700;SDS011;46541;49.894;10.886;2024-01-30T03:19:01;20.58;;;10.90;;
60700;SDS011;46541;49.894;10.886;2024-01-30T03:21:29;21.02;;;10.05;;
60700;SDS011;46541;49.894;10.886;2024-01-30T03:23:55;22.42;;;12.05;;
60700;SDS011;46541;49.894;10.886;2024-01-30T03:26:22;22.25;;;10.75;;
60700;SDS011;46541;49.894;10.886;2024-01-30T03:28:49;21.30;;;9.68;;
60700;SDS011;46541;49.894;10.886;2024-01-30T03:31:16;21.45;;;9.90;;
60700;SDS011;46541;49.894;10.886;2024-01-30T03:33:43;19.85;;;9.98;;
60700;SDS011;46541;49.894;10.886;2024-01-30T03:36:11;19.55;;;9.75;;
60700;SDS011;46541;49.894;10.886;2024-01-30T03:38:37;19.27;;;10.88;;
60700;SDS011;46541;49.894;10.886;2024-01-30T03:41:07;21.23;;;10.20;;
60700;SDS011;46541;49.894;10.886;2024-01-30T03:43:34;18.90;;;9.98;;
60700;SDS011;46541;49.894;10.886;2024-01-30T03:46:01;20.92;;;10.57;;
60700;SDS011;46541;49.894;10.886;2024-01-30T03:48:29;22.50;;;10.52;;
60700;SDS011;46541;49.894;10.886;2024-01-30T03:50:56;20.02;;;11.63;;
60700;SDS011;46541;49.894;10.886;2024-01-30T03:53:22;18.75;;;10.30;;
60700;SDS011;46541;49.894;10.886;2024-01-30T03:55:49;26.95;;;11.73;;
60700;SDS011;46541;49.894;10.886;2024-01-30T03:58:16;19.35;;;10.68;;
60700;SDS011;46541;49.894;10.886;2024-01-30T04:00:43;21.60;;;11.27;;
60700;SDS011;46541;49.894;10.886;2024-01-30T04:03:11;22.23;;;10.60;;
60700;SDS011;46541;49.894;10.886;2024-01-30T04:05:37;20.55;;;10.88;;
60700;SDS011;46541;49.894;10.886;2024-01-30T04:08:04;19.30;;;10.95;;
60700;SDS011;46541;49.894;10.886;2024-01-30T04:10:31;21.77;;;10.70;;
60700;SDS011;46541;49.894;10.886;2024-01-30T04:12:58;21.33;;;10.38;;
60700;SDS011;46541;49.894;10.886;2024-01-30T04:15:26;21.17;;;10.63;;
60700;SDS011;46541;49.894;10.886;2024-01-30T04:17:53;22.90;;;11.20;;
60700;SDS011;46541;49.894;10.886;2024-01-30T04:20:19;22.77;;;10.40;;
60700;SDS011;46541;49.894;10.886;2024-01-30T04:22:46;20.55;;;10.05;;
60700;SDS011;46541;49.894;10.886;2024-01-30T04:25:13;20.35;;;10.15;;
60700;SDS011;46541;49.894;10.886;2024-01-30T04:27:40;19.17;;;9.73;;
60700;SDS011;46541;49.894;10.886;2024-01-30T04:30:07;21.35;;;10.63;;
60700;SDS011;46541;49.894;10.886;2024-01-30T04:32:35;22.48;;;11.02;;
60700;SDS011;46541;49.894;10.886;2024-01-30T04:35:02;22.60;;;12.15;;
60700;SDS011;46541;49.894;10.886;2024-01-30T04:37:35;23.30;;;10.38;;
60700;SDS011;46541;49.894;10.886;2024-01-30T04:40:02;18.63;;;9.15;;
60700;SDS011;46541;49.894;10.886;2024-01-30T04:42:29;19.00;;;10.65;;
60700;SDS011;46541;49.894;10.886;2024-01-30T04:44:56;21.10;;;11.00;;
60700;SDS011;46541;49.894;10.886;2024-01-30T04:47:22;20.48;;;10.48;;
60700;SDS011;46541;49.894;10.886;2024-01-30T04:49:51;21.15;;;11.18;;
60700;SDS011;46541;49.894;10.886;2024-01-30T04:52:18;19.08;;;10.10;;
60700;SDS011;46541;49.894;10.886;2024-01-30T04:54:44;21.13;;;11.20;;
60700;SDS011;46541;49.894;10.886;2024-01-30T04:57:11;20.15;;;9.65;;
60700;SDS011;46541;49.894;10.886;2024-01-30T04:59:38;24.05;;;11.52;;
60700;SDS011;46541;49.894;10.886;2024-01-30T05:02:05;20.48;;;10.30;;
60700;SDS011;46541;49.894;10.886;2024-01-30T05:04:33;27.85;;;11.82;;
60700;SDS011;46541;49.894;10.886;2024-01-30T05:07:00;17.23;;;9.50;;
60700;SDS011;46541;49.894;10.886;2024-01-30T05:09:27;19.90;;;9.68;;
60700;SDS011;46541;49.894;10.886;2024-01-30T05:11:54;20.75;;;10.60;;
60700;SDS011;46541;49.894;10.886;2024-01-30T05:14:21;19.23;;;9.85;;
60700;SDS011;46541;49.894;10.886;2024-01-30T05:16:48;18.67;;;9.02;;
60700;SDS011;46541;49.894;10.886;2024-01-30T05:19:15;18.15;;;9.52;;
60700;SDS011;46541;49.894;10.886;2024-01-30T05:21:42;19.50;;;11.13;;
60700;SDS011;46541;49.894;10.886;2024-01-30T05:24:09;19.77;;;9.88;;
60700;SDS011;46541;49.894;10.886;2024-01-30T05:26:36;22.02;;;10.82;;
60700;SDS011;46541;49.894;10.886;2024-01-30T05:29:03;20.48;;;9.07;;
60700;SDS011;46541;49.894;10.886;2024-01-30T05:31:30;19.00;;;10.10;;
60700;SDS011;46541;49.894;10.886;2024-01-30T05:33:57;18.33;;;9.32;;
60700;SDS011;46541;49.894;10.886;2024-01-30T05:36:24;18.15;;;9.60;;
60700;SDS011;46541;49.894;10.886;2024-01-30T05:38:51;17.58;;;10.57;;
60700;SDS011;46541;49.894;10.886;2024-01-30T05:41:18;16.42;;;8.63;;
60700;SDS011;46541;49.894;10.886;2024-01-30T05:43:45;27.67;;;9.77;;
60700;SDS011;46541;49.894;10.886;2024-01-30T05:46:12;18.15;;;10.05;;
60700;SDS011;46541;49.894;10.886;2024-01-30T05:48:39;16.65;;;8.68;;
60700;SDS011;46541;49.894;10.886;2024-01-30T05:51:07;17.15;;;9.32;;
60700;SDS011;46541;49.894;10.886;2024-01-30T05:53:34;16.90;;;9.05;;
60700;SDS011;46541;49.894;10.886;2024-01-30T05:56:01;17.42;;;9.15;;
60700;SDS011;46541;49.894;10.886;2024-01-30T05:58:29;19.52;;;10.10;;
60700;SDS011;46541;49.894;10.886;2024-01-30T06:00:57;18.00;;;9.23;;
60700;SDS011;46541;49.894;10.886;2024-01-30T06:03:24;18.23;;;8.77;;
60700;SDS011;46541;49.894;10.886;2024-01-30T06:05:51;18.20;;;9.15;;
60700;SDS011;46541;49.894;10.886;2024-01-30T06:08:18;21.67;;;9.73;;
60700;SDS011;46541;49.894;10.886;2024-01-30T06:10:45;22.08;;;9.40;;
60700;SDS011;46541;49.894;10.886;2024-01-30T06:13:12;17.45;;;8.85;;
60700;SDS011;46541;49.894;10.886;2024-01-30T06:15:39;18.27;;;10.30;;
60700;SDS011;46541;49.894;10.886;2024-01-30T06:18:05;15.90;;;9.52;;
60700;SDS011;46541;49.894;10.886;2024-01-30T06:20:32;20.88;;;10.93;;
60700;SDS011;46541;49.894;10.886;2024-01-30T06:22:59;18.65;;;9.25;;
60700;SDS011;46541;49.894;10.886;2024-01-30T06:25:26;22.30;;;10.82;;
60700;SDS011;46541;49.894;10.886;2024-01-30T06:27:53;19.48;;;9.98;;
60700;SDS011;46541;49.894;10.886;2024-01-30T06:30:20;16.30;;;9.10;;
60700;SDS011;46541;49.894;10.886;2024-01-30T06:32:46;15.98;;;8.18;;
60700;SDS011;46541;49.894;10.886;2024-01-30T06:35:13;20.75;;;9.80;;
60700;SDS011;46541;49.894;10.886;2024-01-30T06:37:40;16.65;;;9.50;;
60700;SDS011;46541;49.894;10.886;2024-01-30T06:40:07;16.17;;;8.95;;
60700;SDS011;46541;49.894;10.886;2024-01-30T06:42:34;20.23;;;9.50;;
60700;SDS011;46541;49.894;10.886;2024-01-30T06:45:01;18.15;;;9.85;;
60700;SDS011;46541;49.894;10.886;2024-01-30T06:47:28;20.10;;;8.15;;
60700;SDS011;46541;49.894;10.886;2024-01-30T06:49:55;17.83;;;9.35;;
60700;SDS011;46541;49.894;10.886;2024-01-30T06:52:22;19.25;;;9.88;;
60700;SDS011;46541;49.894;10.886;2024-01-30T06:54:49;21.70;;;10.13;;
60700;SDS011;46541;49.894;10.886;2024-01-30T06:57:15;20.20;;;11.10;;
60700;SDS011;46541;49.894;10.886;2024-01-30T06:59:42;20.25;;;9.95;;
60700;SDS011;46541;49.894;10.886;2024-01-30T07:02:10;24.52;;;10.10;;
60700;SDS011;46541;49.894;10.886;2024-01-30T07:04:37;18.48;;;9.18;;
60700;SDS011;46541;49.894;10.886;2024-01-30T07:07:10;20.58;;;10.00;;
60700;SDS011;46541;49.894;10.886;2024-01-30T07:09:39;19.17;;;10.30;;
60700;SDS011;46541;49.894;10.886;2024-01-30T07:12:06;18.35;;;9.85;;
60700;SDS011;46541;49.894;10.886;2024-01-30T07:14:33;23.05;;;10.82;;
60700;SDS011;46541;49.894;10.886;2024-01-30T07:17:00;21.13;;;10.50;;
60700;SDS011;46541;49.894;10.886;2024-01-30T07:19:26;22.88;;;11.18;;
60700;SDS011;46541;49.894;10.886;2024-01-30T07:21:54;22.20;;;13.00;;
60700;SDS011;46541;49.894;10.886;2024-01-30T07:24:20;21.08;;;11.18;;
60700;SDS011;46541;49.894;10.886;2024-01-30T07:26:47;24.30;;;13.68;;
60700;SDS011;46541;49.894;10.886;2024-01-30T07:29:14;28.05;;;13.88;;
60700;SDS011;46541;49.894;10.886;2024-01-30T07:31:41;23.77;;;13.43;;
60700;SDS011;46541;49.894;10.886;2024-01-30T07:34:08;29.52;;;14.68;;
60700;SDS011;46541;49.894;10.886;2024-01-30T07:36:35;25.73;;;14.93;;
60700;SDS011;46541;49.894;10.886;2024-01-30T07:39:02;22.50;;;13.38;;
60700;SDS011;46541;49.894;10.886;2024-01-30T07:41:29;21.48;;;11.13;;
60700;SDS011;46541;49.894;10.886;2024-01-30T07:43:55;20.90;;;11.55;;
60700;SDS011;46541;49.894;10.886;2024-01-30T07:46:22;22.42;;;12.38;;
60700;SDS011;46541;49.894;10.886;2024-01-30T07:48:49;22.85;;;11.40;;
60700;SDS011;46541;49.894;10.886;2024-01-30T07:51:20;29.92;;;16.10;;
60700;SDS011;46541;49.894;10.886;2024-01-30T07:53:47;32.80;;;17.33;;
60700;SDS011;46541;49.894;10.886;2024-01-30T07:56:14;19.85;;;12.15;;
60700;SDS011;46541;49.894;10.886;2024-01-30T07:58:42;28.38;;;11.52;;
60700;SDS011;46541;49.894;10.886;2024-01-30T08:01:09;21.88;;;11.80;;
60700;SDS011;46541;49.894;10.886;2024-01-30T08:03:35;23.35;;;12.32;;
60700;SDS011;46541;49.894;10.886;2024-01-30T08:06:03;29.25;;;13.73;;
60700;SDS011;46541;49.894;10.886;2024-01-30T08:08:30;30.90;;;14.40;;
60700;SDS011;46541;49.894;10.886;2024-01-30T08:10:57;27.55;;;14.48;;
60700;SDS011;46541;49.894;10.886;2024-01-30T08:13:23;30.85;;;14.63;;
60700;SDS011;46541;49.894;10.886;2024-01-30T08:15:51;44.13;;;24.42;;
60700;SDS011;46541;49.894;10.886;2024-01-30T08:18:17;40.78;;;19.40;;
60700;SDS011;46541;49.894;10.886;2024-01-30T08:20:44;39.95;;;20.48;;
60700;SDS011;46541;49.894;10.886;2024-01-30T08:23:11;36.60;;;17.45;;
60700;SDS011;46541;49.894;10.886;2024-01-30T08:25:38;42.28;;;19.58;;
60700;SDS011;46541;49.894;10.886;2024-01-30T08:28:05;36.70;;;17.60;;
60700;SDS011;46541;49.894;10.886;2024-01-30T08:30:33;50.30;;;19.05;;
60700;SDS011;46541;49.894;10.886;2024-01-30T08:33:00;43.63;;;21.20;;
60700;SDS011;46541;49.894;10.886;2024-01-30T08:35:27;43.83;;;23.17;;
60700;SDS011;46541;49.894;10.886;2024-01-30T08:37:54;42.70;;;21.45;;
60700;SDS011;46541;49.894;10.886;2024-01-30T08:40:20;38.75;;;19.80;;
60700;SDS011;46541;49.894;10.886;2024-01-30T08:42:47;31.42;;;15.48;;
60700;SDS011;46541;49.894;10.886;2024-01-30T08:45:14;30.00;;;14.77;;
60700;SDS011;46541;49.894;10.886;2024-01-30T08:47:41;32.35;;;14.45;;
60700;SDS011;46541;49.894;10.886;2024-01-30T08:50:08;25.48;;;14.23;;
60700;SDS011;46541;49.894;10.886;2024-01-30T08:52:35;27.38;;;14.40;;
60700;SDS011;46541;49.894;10.886;2024-01-30T08:55:02;27.38;;;14.15;;
60700;SDS011;46541;49.894;10.886;2024-01-30T08:57:29;21.40;;;12.40;;
60700;SDS011;46541;49.894;10.886;2024-01-30T08:59:56;25.35;;;11.15;;
60700;SDS011;46541;49.894;10.886;2024-01-30T09:02:23;21.17;;;10.48;;
60700;SDS011;46541;49.894;10.886;2024-01-30T09:04:50;17.60;;;8.48;;
60700;SDS011;46541;49.894;10.886;2024-01-30T09:07:17;16.17;;;8.05;;
60700;SDS011;46541;49.894;10.886;2024-01-30T09:09:44;18.23;;;8.80;;
60700;SDS011;46541;49.894;10.886;2024-01-30T09:12:11;23.65;;;9.70;;
60700;SDS011;46541;49.894;10.886;2024-01-30T09:14:38;17.52;;;9.55;;
60700;SDS011;46541;49.894;10.886;2024-01-30T09:17:07;13.60;;;8.43;;
60700;SDS011;46541;49.894;10.886;2024-01-30T09:19:34;17.77;;;8.73;;
60700;SDS011;46541;49.894;10.886;2024-01-30T09:22:01;16.60;;;8.32;;
60700;SDS011;46541;49.894;10.886;2024-01-30T09:24:28;16.63;;;8.23;;
60700;SDS011;46541;49.894;10.886;2024-01-30T09:26:55;14.63;;;7.82;;
60700;SDS011;46541;49.894;10.886;2024-01-30T09:29:21;21.60;;;8.93;;
60700;SDS011;46541;49.894;10.886;2024-01-30T09:31:48;20.95;;;8.85;;
60700;SDS011;46541;49.894;10.886;2024-01-30T09:34:15;16.00;;;8.50;;
60700;SDS011;46541;49.894;10.886;2024-01-30T09:36:42;39.83;;;18.02;;
60700;SDS011;46541;49.894;10.886;2024-01-30T09:39:09;19.55;;;8.82;;
60700;SDS011;46541;49.894;10.886;2024-01-30T09:41:39;14.82;;;8.48;;
60700;SDS011;46541;49.894;10.886;2024-01-30T09:44:16;18.80;;;7.75;;
60700;SDS011;46541;49.894;10.886;2024-01-30T09:46:44;16.02;;;7.53;;
60700;SDS011;46541;49.894;10.886;2024-01-30T09:49:13;15.18;;;8.30;;
60700;SDS011;46541;49.894;10.886;2024-01-30T09:51:42;20.05;;;8.38;;
60700;SDS011;46541;49.894;10.886;2024-01-30T09:54:11;19.73;;;8.48;;
60700;SDS011;46541;49.894;10.886;2024-01-30T09:56:40;18.27;;;9.05;;
60700;SDS011;46541;49.894;10.886;2024-01-30T09:59:07;18.55;;;9.48;;
60700;SDS011;46541;49.894;10.886;2024-01-30T10:01:34;21.70;;;11.27;;
60700;SDS011;46541;49.894;10.886;2024-01-30T10:04:01;21.65;;;10.75;;
60700;SDS011;46541;49.894;10.886;2024-01-30T10:06:28;30.08;;;13.68;;
60700;SDS011;46541;49.894;10.886;2024-01-30T10:08:55;22.63;;;11.02;;
60700;SDS011;46541;49.894;10.886;2024-01-30T10:11:24;21.38;;;11.23;;
60700;SDS011;46541;49.894;10.886;2024-01-30T10:13:51;17.08;;;10.27;;
60700;SDS011;46541;49.894;10.886;2024-01-30T10:16:18;17.27;;;10.32;;
60700;SDS011;46541;49.894;10.886;2024-01-30T10:18:45;33.28;;;17.30;;
60700;SDS011;46541;49.894;10.886;2024-01-30T10:21:12;30.23;;;15.40;;
60700;SDS011;46541;49.894;10.886;2024-01-30T10:23:39;18.85;;;10.38;;
60700;SDS011;46541;49.894;10.886;2024-01-30T10:26:07;25.00;;;12.65;;
60700;SDS011;46541;49.894;10.886;2024-01-30T10:28:34;24.02;;;13.35;;
60700;SDS011;46541;49.894;10.886;2024-01-30T10:31:01;24.90;;;13.80;;
60700;SDS011;46541;49.894;10.886;2024-01-30T10:33:32;28.08;;;16.92;;
60700;SDS011;46541;49.894;10.886;2024-01-30T10:36:00;20.25;;;10.48;;
60700;SDS011;46541;49.894;10.886;2024-01-30T10:38:29;30.88;;;16.80;;
60700;SDS011;46541;49.894;10.886;2024-01-30T10:41:00;32.22;;;16.17;;
60700;SDS011;46541;49.894;10.886;2024-01-30T10:43:31;34.03;;;16.50;;
60700;SDS011;46541;49.894;10.886;2024-01-30T10:46:10;34.30;;;18.42;;
60700;SDS011;46541;49.894;10.886;2024-01-30T10:48:46;30.80;;;14.82;;
60700;SDS011;46541;49.894;10.886;2024-01-30T10:51:27;29.13;;;16.90;;
60700;SDS011;46541;49.894;10.886;2024-01-30T10:53:55;24.65;;;13.90;;
60700;SDS011;46541;49.894;10.886;2024-01-30T10:56:24;28.80;;;16.60;;
60700;SDS011;46541;49.894;10.886;2024-01-30T10:58:52;22.08;;;12.65;;
60700;SDS011;46541;49.894;10.886;2024-01-30T11:01:20;22.90;;;11.82;;
60700;SDS011;46541;49.894;10.886;2024-01-30T11:03:51;25.02;;;12.32;;
60700;SDS011;46541;49.894;10.886;2024-01-30T11:06:22;21.15;;;11.52;;
60700;SDS011;46541;49.894;10.886;2024-01-30T11:14:23;17.52;;;10.82;;
60700;SDS011;46541;49.894;10.886;2024-01-30T11:16:56;19.42;;;11.32;;
60700;SDS011;46541;49.894;10.886;2024-01-30T11:19:24;20.13;;;10.75;;
60700;SDS011;46541;49.894;10.886;2024-01-30T11:21:53;16.27;;;10.63;;
60700;SDS011;46541;49.894;10.886;2024-01-30T11:24:20;23.98;;;12.15;;
60700;SDS011;46541;49.894;10.886;2024-01-30T11:26:56;15.77;;;9.88;;
60700;SDS011;46541;49.894;10.886;2024-01-30T11:29:25;24.35;;;11.88;;
60700;SDS011;46541;49.894;10.886;2024-01-30T11:31:57;18.48;;;10.05;;
60700;SDS011;46541;49.894;10.886;2024-01-30T11:34:25;16.17;;;10.27;;
60700;SDS011;46541;49.894;10.886;2024-01-30T11:36:53;16.00;;;9.82;;
60700;SDS011;46541;49.894;10.886;2024-01-30T11:39:26;18.35;;;9.75;;
60700;SDS011;46541;49.894;10.886;2024-01-30T11:41:53;22.35;;;13.02;;
60700;SDS011;46541;49.894;10.886;2024-01-30T11:44:20;23.63;;;11.55;;
60700;SDS011;46541;49.894;10.886;2024-01-30T11:46:51;31.80;;;17.90;;
60700;SDS011;46541;49.894;10.886;2024-01-30T11:49:18;18.73;;;11.30;;
60700;SDS011;46541;49.894;10.886;2024-01-30T11:51:45;20.98;;;11.55;;
60700;SDS011;46541;49.894;10.886;2024-01-30T11:54:18;29.58;;;18.95;;
60700;SDS011;46541;49.894;10.886;2024-01-30T11:56:44;29.85;;;19.13;;
60700;SDS011;46541;49.894;10.886;2024-01-30T11:59:11;26.45;;;13.65;;
60700;SDS011;46541;49.894;10.886;2024-01-30T12:01:38;17.05;;;10.55;;
60700;SDS011;46541;49.894;10.886;2024-01-30T12:04:05;21.33;;;11.95;;
60700;SDS011;46541;49.894;10.886;2024-01-30T12:06:36;21.67;;;11.55;;
60700;SDS011;46541;49.894;10.886;2024-01-30T12:09:04;18.40;;;12.15;;
60700;SDS011;46541;49.894;10.886;2024-01-30T12:11:31;26.13;;;11.85;;
60700;SDS011;46541;49.894;10.886;2024-01-30T12:13:57;18.60;;;11.27;;
60700;SDS011;46541;49.894;10.886;2024-01-30T12:16:25;23.40;;;12.45;;
60700;SDS011;46541;49.894;10.886;2024-01-30T12:18:59;16.35;;;10.30;;
60700;SDS011;46541;49.894;10.886;2024-01-30T12:21:28;28.48;;;13.77;;
60700;SDS011;46541;49.894;10.886;2024-01-30T12:23:56;25.00;;;12.52;;
60700;SDS011;46541;49.894;10.886;2024-01-30T12:26:24;18.80;;;11.60;;
60700;SDS011;46541;49.894;10.886;2024-01-30T12:28:54;21.80;;;11.82;;
60700;SDS011;46541;49.894;10.886;2024-01-30T12:31:25;23.02;;;13.27;;
60700;SDS011;46541;49.894;10.886;2024-01-30T12:33:55;22.02;;;11.18;;
60700;SDS011;46541;49.894;10.886;2024-01-30T12:36:24;23.70;;;12.07;;
60700;SDS011;46541;49.894;10.886;2024-01-30T12:38:51;23.25;;;14.20;;
60700;SDS011;46541;49.894;10.886;2024-01-30T12:41:19;19.90;;;10.90;;
60700;SDS011;46541;49.894;10.886;2024-01-30T12:43:46;22.88;;;11.32;;
60700;SDS011;46541;49.894;10.886;2024-01-30T12:46:16;22.55;;;12.25;;
60700;SDS011;46541;49.894;10.886;2024-01-30T12:48:44;20.23;;;10.93;;
60700;SDS011;46541;49.894;10.886;2024-01-30T12:51:11;26.27;;;11.25;;
60700;SDS011;46541;49.894;10.886;2024-01-30T12:53:37;16.35;;;10.43;;
60700;SDS011;46541;49.894;10.886;2024-01-30T12:56:04;23.05;;;10.75;;
60700;SDS011;46541;49.894;10.886;2024-01-30T12:58:31;22.60;;;12.70;;
60700;SDS011;46541;49.894;10.886;2024-01-30T13:00:58;24.83;;;13.07;;
60700;SDS011;46541;49.894;10.886;2024-01-30T13:03:25;21.75;;;12.23;;
60700;SDS011;46541;49.894;10.886;2024-01-30T13:05:52;22.02;;;12.15;;
60700;SDS011;46541;49.894;10.886;2024-01-30T13:08:19;21.13;;;12.07;;
60700;SDS011;46541;49.894;10.886;2024-01-30T13:10:46;21.65;;;10.98;;
60700;SDS011;46541;49.894;10.886;2024-01-30T13:13:15;26.77;;;12.65;;
60700;SDS011;46541;49.894;10.886;2024-01-30T13:15:46;25.13;;;14.82;;
60700;SDS011;46541;49.894;10.886;2024-01-30T13:18:14;23.15;;;13.52;;
60700;SDS011;46541;49.894;10.886;2024-01-30T13:20:41;23.25;;;11.65;;
60700;SDS011;46541;49.894;10.886;2024-01-30T13:23:08;19.83;;;13.07;;
60700;SDS011;46541;49.894;10.886;2024-01-30T13:25:35;24.85;;;11.27;;
60700;SDS011;46541;49.894;10.886;2024-01-30T13:28:02;20.13;;;11.15;;
60700;SDS011;46541;49.894;10.886;2024-01-30T13:30:30;21.40;;;12.00;;
60700;SDS011;46541;49.894;10.886;2024-01-30T13:32:56;17.67;;;10.93;;
60700;SDS011;46541;49.894;10.886;2024-01-30T13:35:24;18.13;;;11.05;;
60700;SDS011;46541;49.894;10.886;2024-01-30T13:37:51;16.98;;;11.55;;
60700;SDS011;46541;49.894;10.886;2024-01-30T13:40:18;16.50;;;10.80;;
60700;SDS011;46541;49.894;10.886;2024-01-30T13:42:45;26.70;;;12.05;;
60700;SDS011;46541;49.894;10.886;2024-01-30T13:45:12;19.13;;;11.05;;
60700;SDS011;46541;49.894;10.886;2024-01-30T13:47:39;18.92;;;11.35;;
60700;SDS011;46541;49.894;10.886;2024-01-30T13:50:06;19.42;;;11.55;;
60700;SDS011;46541;49.894;10.886;2024-01-30T13:52:34;20.60;;;11.05;;
60700;SDS011;46541;49.894;10.886;2024-01-30T13:55:10;18.75;;;10.95;;
60700;SDS011;46541;49.894;10.886;2024-01-30T13:57:37;20.35;;;11.13;;
60700;SDS011;46541;49.894;10.886;2024-01-30T14:00:04;22.83;;;11.70;;
60700;SDS011;46541;49.894;10.886;2024-01-30T14:02:35;16.83;;;10.43;;
60700;SDS011;46541;49.894;10.886;2024-01-30T14:05:02;24.98;;;10.55;;
60700;SDS011;46541;49.894;10.886;2024-01-30T14:07:31;23.85;;;10.85;;
60700;SDS011;46541;49.894;10.886;2024-01-30T14:09:58;18.73;;;11.18;;
60700;SDS011;46541;49.894;10.886;2024-01-30T14:12:25;18.27;;;10.82;;
60700;SDS011;46541;49.894;10.886;2024-01-30T14:14:51;27.50;;;10.75;;
60700;SDS011;46541;49.894;10.886;2024-01-30T14:17:18;16.48;;;10.75;;